Perkins, MI (49872)

2:14 PM EDT on August 29, 2014 (GMT -0400)
Rock | Change Station
CLOSE
Current Station
Personal Weather Station
Location: Rock, MI
Elevation: 958 ft
Nearby Weather Stations

Elev 958 ft 46.07 °N, 87.16 °W | Updated 14 seconds ago

Overcast
Overcast
62.8 °F
Feels Like 62.8 °F
N
6.0
Wind Variable Wind from South
Gusts 7.0 mph

Today
High -- | Low -- °F
--% Chance of Precip.
Yesterday
High -- | Low -- °F
Precip. -- in
7:05 AM 8:32 PM
Waxing Crescent, 15% visible
Pressure 29.91 in
Visibility 4.0 miles
Clouds Overcast 500 ft
Dew Point 62 °F
Humidity 98%
Rainfall 0.04 in
Snow Depth Not available.
UV 0.9 out of 12
Pollen .20 out of 12
Ozone Good
PM2.5 Good
Flu Activity Not available.
METAR KESC 291755Z 17006KT 4SM OVC005 18/17 A2991 RMK AO1 60025 10180 20160 57017

More Conditions Fewer Conditions

Pressure 29.91 in
Visibility 4.0 miles
Clouds Overcast 500 ft
Dew Point 62 °F
Humidity 98%
Rainfall 0.04 in
Snow Depth Not available.
UV 0.9 out of 12
Pollen .20 out of 12
Ozone Good
PM2.5 Good
Flu Activity Not available.
METAR KESC 291755Z 17006KT 4SM OVC005 18/17 A2991 RMK AO1 60025 10180 20160 57017

More Conditions Fewer Conditions

10-Day Weather Forecast

Almanac

Astronomy

Aug. 29, 2014 Rise Set
Actual Time 7:05 AM EDT 8:32 PM EDT
Civil Twilight 6:34 AM EDT 9:03 PM EDT
Nautical Twilight 5:56 AM EDT 9:40 PM EDT
Astronomical Twilight 5:15 AM EDT 10:21 PM EDT
Moon 11:09 AM EDT 10:13 PM EDT
Length of Visible Light 14h 29m
Length of Day
13h 26m
Tomorrow will be 3m 6s shorter.
Waxing Crescent, 15% of the Moon is Illuminated
Today
Waxing Crescent
Sep 2
First Quarter
Sep 8
Full
Sep 15
Last Quarter
Sep 24
New

Today's Extremes

State Highs State Lows

Community

WunderPhotos

Upload Photos

1,748,309 photos uploaded!

Nearby

Air Quality

  Air Quality AQ Index Pollutant
Yesterday Good
OZONE
Yesterday Good
PM2.5
Current Good
PM2.5
Current Good
OZONE
Friday Good
OZONE
Friday Good
PM2.5
Saturday Good
OZONE
Saturday Good
PM2.5
Sunday Good
OZONE
Sunday Good
PM2.5
Monday Good
OZONE
Monday Good
PM2.5
Tuesday Good
OZONE
Tuesday Good
PM2.5

Snow Depth

Station Depth Elevation
No new snow has been reported.

Earthquake Activity

City Distance Mag. Time & Date
No recent earthquake activity has been reported nearby.
Minimum magnitude displayed is 2.5.

Coastal Water Temperatures

Place Temperature
Menominee, MI 72.0 °F
Port Inland, MI 64.0 °F

Nearby Weather Stations